sensor_id;sensor_type;location;lat;lon;timestamp;temperature;humidity
51567;DHT22;37657;53.182;5.638;2023-02-28T00:02:11;4.40;99.90
51567;DHT22;37657;53.182;5.638;2023-02-28T00:04:37;4.50;99.90
51567;DHT22;37657;53.182;5.638;2023-02-28T00:07:02;4.50;99.90
51567;DHT22;37657;53.182;5.638;2023-02-28T00:09:28;4.50;99.90
51567;DHT22;37657;53.182;5.638;2023-02-28T00:11:54;4.50;99.90
51567;DHT22;37657;53.182;5.638;2023-02-28T00:14:19;4.50;99.90
51567;DHT22;37657;53.182;5.638;2023-02-28T00:16:45;4.50;99.90
51567;DHT22;37657;53.182;5.638;2023-02-28T00:19:10;4.60;99.90
51567;DHT22;37657;53.182;5.638;2023-02-28T00:21:38;4.50;99.90
51567;DHT22;37657;53.182;5.638;2023-02-28T00:24:06;4.40;99.90
51567;DHT22;37657;53.182;5.638;2023-02-28T00:26:32;4.40;99.90
51567;DHT22;37657;53.182;5.638;2023-02-28T00:28:58;4.50;99.90
51567;DHT22;37657;53.182;5.638;2023-02-28T00:31:23;4.50;99.90
51567;DHT22;37657;53.182;5.638;2023-02-28T00:33:49;4.40;99.90
51567;DHT22;37657;53.182;5.638;2023-02-28T00:36:16;4.40;99.90
51567;DHT22;37657;53.182;5.638;2023-02-28T00:38:41;4.40;99.90
51567;DHT22;37657;53.182;5.638;2023-02-28T00:41:07;4.40;99.90
51567;DHT22;37657;53.182;5.638;2023-02-28T00:43:34;4.40;99.90
51567;DHT22;37657;53.182;5.638;2023-02-28T00:46:00;4.40;99.90
51567;DHT22;37657;53.182;5.638;2023-02-28T00:48:26;4.40;99.90
51567;DHT22;37657;53.182;5.638;2023-02-28T00:50:51;4.40;99.90
51567;DHT22;37657;53.182;5.638;2023-02-28T00:53:17;4.50;99.90
51567;DHT22;37657;53.182;5.638;2023-02-28T00:55:42;4.40;99.90
51567;DHT22;37657;53.182;5.638;2023-02-28T00:58:08;4.50;99.90
51567;DHT22;37657;53.182;5.638;2023-02-28T01:00:33;4.50;99.90
51567;DHT22;37657;53.182;5.638;2023-02-28T01:02:59;4.60;99.90
51567;DHT22;37657;53.182;5.638;2023-02-28T01:05:24;4.40;99.90
51567;DHT22;37657;53.182;5.638;2023-02-28T01:07:50;4.40;99.90
51567;DHT22;37657;53.182;5.638;2023-02-28T01:10:16;4.50;99.90
51567;DHT22;37657;53.182;5.638;2023-02-28T01:12:41;4.50;99.90
51567;DHT22;37657;53.182;5.638;2023-02-28T01:15:10;4.40;99.90
51567;DHT22;37657;53.182;5.638;2023-02-28T01:17:36;4.50;99.90
51567;DHT22;37657;53.182;5.638;2023-02-28T01:20:03;4.50;99.90
51567;DHT22;37657;53.182;5.638;2023-02-28T01:22:29;4.40;99.90
51567;DHT22;37657;53.182;5.638;2023-02-28T01:24:54;4.40;99.90
51567;DHT22;37657;53.182;5.638;2023-02-28T01:27:20;4.40;99.90
51567;DHT22;37657;53.182;5.638;2023-02-28T01:29:46;4.40;99.90
51567;DHT22;37657;53.182;5.638;2023-02-28T01:32:11;4.60;99.90
51567;DHT22;37657;53.182;5.638;2023-02-28T01:34:37;4.40;99.90
51567;DHT22;37657;53.182;5.638;2023-02-28T01:37:02;4.60;99.90
51567;DHT22;37657;53.182;5.638;2023-02-28T01:39:28;4.50;99.90
51567;DHT22;37657;53.182;5.638;2023-02-28T01:41:54;4.60;99.90
51567;DHT22;37657;53.182;5.638;2023-02-28T01:44:55;4.60;99.90
51567;DHT22;37657;53.182;5.638;2023-02-28T01:47:22;4.60;99.90
51567;DHT22;37657;53.182;5.638;2023-02-28T01:49:50;4.60;99.90
51567;DHT22;37657;53.182;5.638;2023-02-28T01:52:17;4.60;99.90
51567;DHT22;37657;53.182;5.638;2023-02-28T01:54:50;4.60;99.90
51567;DHT22;37657;53.182;5.638;2023-02-28T01:57:18;4.50;99.90
51567;DHT22;37657;53.182;5.638;2023-02-28T01:59:50;4.50;99.90
51567;DHT22;37657;53.182;5.638;2023-02-28T02:02:19;4.40;99.90
51567;DHT22;37657;53.182;5.638;2023-02-28T02:05:07;4.30;99.90
51567;DHT22;37657;53.182;5.638;2023-02-28T02:07:35;4.40;99.90
51567;DHT22;37657;53.182;5.638;2023-02-28T02:24:29;4.40;99.90
51567;DHT22;37657;53.182;5.638;2023-02-28T02:27:22;4.50;99.90
51567;DHT22;37657;53.182;5.638;2023-02-28T02:33:05;4.60;99.90
51567;DHT22;37657;53.182;5.638;2023-02-28T02:35:43;4.80;99.90
51567;DHT22;37657;53.182;5.638;2023-02-28T02:38:49;4.80;99.90
51567;DHT22;37657;53.182;5.638;2023-02-28T02:41:23;4.80;99.90
51567;DHT22;37657;53.182;5.638;2023-02-28T02:44:31;4.90;99.90
51567;DHT22;37657;53.182;5.638;2023-02-28T02:47:12;4.80;99.90
51567;DHT22;37657;53.182;5.638;2023-02-28T02:49:42;4.90;99.90
51567;DHT22;37657;53.182;5.638;2023-02-28T02:52:11;5.10;99.90
51567;DHT22;37657;53.182;5.638;2023-02-28T02:54:41;5.00;99.90
51567;DHT22;37657;53.182;5.638;2023-02-28T02:57:12;5.10;99.90
51567;DHT22;37657;53.182;5.638;2023-02-28T02:59:41;4.80;99.90
51567;DHT22;37657;53.182;5.638;2023-02-28T03:02:09;5.10;99.90
51567;DHT22;37657;53.182;5.638;2023-02-28T03:04:45;4.80;99.90
51567;DHT22;37657;53.182;5.638;2023-02-28T03:07:14;4.90;99.90
51567;DHT22;37657;53.182;5.638;2023-02-28T03:09:50;5.00;99.90
51567;DHT22;37657;53.182;5.638;2023-02-28T03:12:17;5.10;99.90
51567;DHT22;37657;53.182;5.638;2023-02-28T03:15:08;5.20;99.90
51567;DHT22;37657;53.182;5.638;2023-02-28T03:17:57;5.00;99.90
51567;DHT22;37657;53.182;5.638;2023-02-28T03:20:35;5.00;99.90
51567;DHT22;37657;53.182;5.638;2023-02-28T03:23:13;5.30;99.90
51567;DHT22;37657;53.182;5.638;2023-02-28T03:26:01;4.90;99.90
51567;DHT22;37657;53.182;5.638;2023-02-28T03:28:45;5.00;99.90
51567;DHT22;37657;53.182;5.638;2023-02-28T03:31:26;5.20;99.90
51567;DHT22;37657;53.182;5.638;2023-02-28T03:34:11;5.00;99.90
51567;DHT22;37657;53.182;5.638;2023-02-28T03:36:41;5.00;99.90
51567;DHT22;37657;53.182;5.638;2023-02-28T03:39:27;5.00;99.90
51567;DHT22;37657;53.182;5.638;2023-02-28T03:42:06;5.10;99.90
51567;DHT22;37657;53.182;5.638;2023-02-28T03:47:09;5.00;99.90
51567;DHT22;37657;53.182;5.638;2023-02-28T03:49:40;5.20;99.90
51567;DHT22;37657;53.182;5.638;2023-02-28T03:52:09;5.10;99.90
51567;DHT22;37657;53.182;5.638;2023-02-28T03:54:44;5.20;99.90
51567;DHT22;37657;53.182;5.638;2023-02-28T04:00:40;5.00;99.90
51567;DHT22;37657;53.182;5.638;2023-02-28T04:03:07;5.00;99.90
51567;DHT22;37657;53.182;5.638;2023-02-28T04:05:48;5.10;99.90
51567;DHT22;37657;53.182;5.638;2023-02-28T04:08:15;5.20;99.90
51567;DHT22;37657;53.182;5.638;2023-02-28T04:10:42;5.30;99.90
51567;DHT22;37657;53.182;5.638;2023-02-28T04:13:10;5.20;99.90
51567;DHT22;37657;53.182;5.638;2023-02-28T04:15:36;5.20;99.90
51567;DHT22;37657;53.182;5.638;2023-02-28T04:18:02;5.20;99.90
51567;DHT22;37657;53.182;5.638;2023-02-28T04:20:27;5.20;99.90
51567;DHT22;37657;53.182;5.638;2023-02-28T04:22:53;5.10;99.90
51567;DHT22;37657;53.182;5.638;2023-02-28T04:25:18;5.30;99.90
51567;DHT22;37657;53.182;5.638;2023-02-28T04:27:44;5.30;99.90
51567;DHT22;37657;53.182;5.638;2023-02-28T04:30:11;5.00;99.90
51567;DHT22;37657;53.182;5.638;2023-02-28T04:32:37;5.10;99.90
51567;DHT22;37657;53.182;5.638;2023-02-28T04:35:03;5.30;99.90
51567;DHT22;37657;53.182;5.638;2023-02-28T04:37:29;5.10;99.90
51567;DHT22;37657;53.182;5.638;2023-02-28T04:39:54;5.40;99.90
51567;DHT22;37657;53.182;5.638;2023-02-28T04:42:20;5.10;99.90
51567;DHT22;37657;53.182;5.638;2023-02-28T04:44:46;5.30;99.90
51567;DHT22;37657;53.182;5.638;2023-02-28T04:47:12;5.20;99.90
51567;DHT22;37657;53.182;5.638;2023-02-28T04:49:38;5.50;99.90
51567;DHT22;37657;53.182;5.638;2023-02-28T04:52:04;5.60;99.90
51567;DHT22;37657;53.182;5.638;2023-02-28T04:54:30;5.50;99.90
51567;DHT22;37657;53.182;5.638;2023-02-28T04:56:55;5.30;99.90
51567;DHT22;37657;53.182;5.638;2023-02-28T04:59:21;5.40;99.90
51567;DHT22;37657;53.182;5.638;2023-02-28T05:01:48;5.60;99.90
51567;DHT22;37657;53.182;5.638;2023-02-28T05:04:14;5.60;99.90
51567;DHT22;37657;53.182;5.638;2023-02-28T05:06:40;5.60;99.90
51567;DHT22;37657;53.182;5.638;2023-02-28T05:09:05;5.50;99.90
51567;DHT22;37657;53.182;5.638;2023-02-28T05:11:32;5.50;99.90
51567;DHT22;37657;53.182;5.638;2023-02-28T05:14:02;5.80;99.90
51567;DHT22;37657;53.182;5.638;2023-02-28T05:16:29;5.80;99.90
51567;DHT22;37657;53.182;5.638;2023-02-28T05:18:54;5.90;99.90
51567;DHT22;37657;53.182;5.638;2023-02-28T05:21:33;5.80;99.90
51567;DHT22;37657;53.182;5.638;2023-02-28T05:24:04;5.70;99.90
51567;DHT22;37657;53.182;5.638;2023-02-28T05:26:30;5.70;99.90
51567;DHT22;37657;53.182;5.638;2023-02-28T05:28:56;6.00;99.90
51567;DHT22;37657;53.182;5.638;2023-02-28T05:31:23;6.00;99.90
51567;DHT22;37657;53.182;5.638;2023-02-28T05:33:48;5.70;99.90
51567;DHT22;37657;53.182;5.638;2023-02-28T05:36:14;5.90;99.90
51567;DHT22;37657;53.182;5.638;2023-02-28T05:38:40;6.10;99.90
51567;DHT22;37657;53.182;5.638;2023-02-28T05:41:10;5.90;99.90
51567;DHT22;37657;53.182;5.638;2023-02-28T05:43:36;5.80;99.90
51567;DHT22;37657;53.182;5.638;2023-02-28T05:46:06;6.00;99.90
51567;DHT22;37657;53.182;5.638;2023-02-28T05:48:34;5.80;99.90
51567;DHT22;37657;53.182;5.638;2023-02-28T05:50:59;6.00;99.90
51567;DHT22;37657;53.182;5.638;2023-02-28T05:53:25;6.20;99.90
51567;DHT22;37657;53.182;5.638;2023-02-28T05:55:51;5.80;99.90
51567;DHT22;37657;53.182;5.638;2023-02-28T05:58:17;6.20;99.90
51567;DHT22;37657;53.182;5.638;2023-02-28T06:00:42;6.00;99.90
51567;DHT22;37657;53.182;5.638;2023-02-28T06:03:08;6.10;99.90
51567;DHT22;37657;53.182;5.638;2023-02-28T06:05:34;5.80;99.90
51567;DHT22;37657;53.182;5.638;2023-02-28T06:07:59;6.00;99.90
51567;DHT22;37657;53.182;5.638;2023-02-28T06:10:25;5.80;99.90
51567;DHT22;37657;53.182;5.638;2023-02-28T06:12:50;6.00;99.90
51567;DHT22;37657;53.182;5.638;2023-02-28T06:15:16;6.20;99.90
51567;DHT22;37657;53.182;5.638;2023-02-28T06:17:43;6.10;99.90
51567;DHT22;37657;53.182;5.638;2023-02-28T06:20:10;6.10;99.90
51567;DHT22;37657;53.182;5.638;2023-02-28T06:22:38;6.30;99.90
51567;DHT22;37657;53.182;5.638;2023-02-28T06:25:05;6.20;99.90
51567;DHT22;37657;53.182;5.638;2023-02-28T06:27:32;5.90;99.90
51567;DHT22;37657;53.182;5.638;2023-02-28T06:29:57;6.30;99.90
51567;DHT22;37657;53.182;5.638;2023-02-28T06:32:23;5.90;99.90
51567;DHT22;37657;53.182;5.638;2023-02-28T06:34:48;6.20;99.90
51567;DHT22;37657;53.182;5.638;2023-02-28T06:37:16;5.90;99.90
51567;DHT22;37657;53.182;5.638;2023-02-28T06:39:41;5.90;99.90
51567;DHT22;37657;53.182;5.638;2023-02-28T06:42:07;6.20;99.90
51567;DHT22;37657;53.182;5.638;2023-02-28T06:44:32;6.00;99.90
51567;DHT22;37657;53.182;5.638;2023-02-28T06:47:04;6.20;99.90
51567;DHT22;37657;53.182;5.638;2023-02-28T06:49:30;6.10;99.90
51567;DHT22;37657;53.182;5.638;2023-02-28T06:51:56;5.80;99.90
51567;DHT22;37657;53.182;5.638;2023-02-28T06:54:22;6.00;99.90
51567;DHT22;37657;53.182;5.638;2023-02-28T06:56:47;5.90;99.90
51567;DHT22;37657;53.182;5.638;2023-02-28T06:59:13;5.60;99.90
51567;DHT22;37657;53.182;5.638;2023-02-28T07:01:40;5.40;99.90
51567;DHT22;37657;53.182;5.638;2023-02-28T07:04:06;5.50;99.90
51567;DHT22;37657;53.182;5.638;2023-02-28T07:06:32;5.30;99.90
51567;DHT22;37657;53.182;5.638;2023-02-28T07:08:58;5.10;99.90
51567;DHT22;37657;53.182;5.638;2023-02-28T07:11:25;5.20;99.90
51567;DHT22;37657;53.182;5.638;2023-02-28T07:13:55;5.20;99.90
51567;DHT22;37657;53.182;5.638;2023-02-28T07:16:21;5.00;99.90
51567;DHT22;37657;53.182;5.638;2023-02-28T07:18:48;5.00;99.90
51567;DHT22;37657;53.182;5.638;2023-02-28T07:21:13;5.00;99.90
51567;DHT22;37657;53.182;5.638;2023-02-28T07:23:40;4.80;99.90
51567;DHT22;37657;53.182;5.638;2023-02-28T07:26:11;4.80;99.90
51567;DHT22;37657;53.182;5.638;2023-02-28T07:28:38;4.90;99.90
51567;DHT22;37657;53.182;5.638;2023-02-28T07:31:06;4.70;99.90
51567;DHT22;37657;53.182;5.638;2023-02-28T07:33:32;4.70;99.90
51567;DHT22;37657;53.182;5.638;2023-02-28T07:36:10;4.60;99.90
51567;DHT22;37657;53.182;5.638;2023-02-28T07:38:41;4.60;99.90
51567;DHT22;37657;53.182;5.638;2023-02-28T07:41:07;4.70;99.90
51567;DHT22;37657;53.182;5.638;2023-02-28T07:43:34;4.60;99.90
51567;DHT22;37657;53.182;5.638;2023-02-28T07:46:08;4.60;99.90
51567;DHT22;37657;53.182;5.638;2023-02-28T07:48:34;4.50;99.90
51567;DHT22;37657;53.182;5.638;2023-02-28T07:51:00;4.60;99.90
51567;DHT22;37657;53.182;5.638;2023-02-28T07:53:27;4.50;99.90
51567;DHT22;37657;53.182;5.638;2023-02-28T07:55:57;4.50;99.90
51567;DHT22;37657;53.182;5.638;2023-02-28T07:58:23;4.60;99.90
51567;DHT22;37657;53.182;5.638;2023-02-28T08:00:49;4.60;99.90
51567;DHT22;37657;53.182;5.638;2023-02-28T08:03:15;4.40;99.90
51567;DHT22;37657;53.182;5.638;2023-02-28T08:05:41;4.50;99.90
51567;DHT22;37657;53.182;5.638;2023-02-28T08:08:07;4.60;99.90
51567;DHT22;37657;53.182;5.638;2023-02-28T08:10:33;4.50;99.90
51567;DHT22;37657;53.182;5.638;2023-02-28T08:12:59;4.50;99.90
51567;DHT22;37657;53.182;5.638;2023-02-28T08:15:24;4.50;99.90
51567;DHT22;37657;53.182;5.638;2023-02-28T08:17:50;4.40;99.90
51567;DHT22;37657;53.182;5.638;2023-02-28T08:20:15;4.60;99.90
51567;DHT22;37657;53.182;5.638;2023-02-28T08:22:41;4.50;99.90
51567;DHT22;37657;53.182;5.638;2023-02-28T08:25:08;4.50;99.90
51567;DHT22;37657;53.182;5.638;2023-02-28T08:27:34;4.50;99.90
51567;DHT22;37657;53.182;5.638;2023-02-28T08:29:59;4.50;99.90
51567;DHT22;37657;53.182;5.638;2023-02-28T08:32:25;4.30;99.90
51567;DHT22;37657;53.182;5.638;2023-02-28T08:34:50;4.40;99.90
51567;DHT22;37657;53.182;5.638;2023-02-28T08:37:16;4.60;99.90
51567;DHT22;37657;53.182;5.638;2023-02-28T08:39:42;4.60;99.90
51567;DHT22;37657;53.182;5.638;2023-02-28T08:42:07;4.60;99.90
51567;DHT22;37657;53.182;5.638;2023-02-28T08:44:33;4.40;99.90
51567;DHT22;37657;53.182;5.638;2023-02-28T08:46:58;4.70;99.90
51567;DHT22;37657;53.182;5.638;2023-02-28T08:49:24;4.40;99.90
51567;DHT22;37657;53.182;5.638;2023-02-28T08:51:50;4.60;99.90
51567;DHT22;37657;53.182;5.638;2023-02-28T08:54:15;4.60;99.90
51567;DHT22;37657;53.182;5.638;2023-02-28T08:56:45;4.60;99.90
51567;DHT22;37657;53.182;5.638;2023-02-28T08:59:12;4.70;99.90
51567;DHT22;37657;53.182;5.638;2023-02-28T09:01:38;4.80;99.90
51567;DHT22;37657;53.182;5.638;2023-02-28T09:04:04;4.70;99.90
51567;DHT22;37657;53.182;5.638;2023-02-28T09:06:32;4.80;99.90
51567;DHT22;37657;53.182;5.638;2023-02-28T09:08:58;4.80;99.90
51567;DHT22;37657;53.182;5.638;2023-02-28T09:11:25;4.70;99.90
51567;DHT22;37657;53.182;5.638;2023-02-28T09:13:51;5.00;99.90
51567;DHT22;37657;53.182;5.638;2023-02-28T09:16:17;4.90;99.90
51567;DHT22;37657;53.182;5.638;2023-02-28T09:18:43;5.00;99.90
51567;DHT22;37657;53.182;5.638;2023-02-28T09:21:11;5.00;99.90
51567;DHT22;37657;53.182;5.638;2023-02-28T09:23:39;5.10;99.90
51567;DHT22;37657;53.182;5.638;2023-02-28T09:26:06;5.10;99.90
51567;DHT22;37657;53.182;5.638;2023-02-28T09:28:31;5.20;99.90
51567;DHT22;37657;53.182;5.638;2023-02-28T09:30:57;5.30;99.90
51567;DHT22;37657;53.182;5.638;2023-02-28T09:33:24;5.30;99.90
51567;DHT22;37657;53.182;5.638;2023-02-28T09:35:51;5.30;99.90
51567;DHT22;37657;53.182;5.638;2023-02-28T09:38:22;5.40;99.90
51567;DHT22;37657;53.182;5.638;2023-02-28T09:41:00;5.40;99.90
51567;DHT22;37657;53.182;5.638;2023-02-28T09:43:29;5.40;99.90
51567;DHT22;37657;53.182;5.638;2023-02-28T09:46:04;5.40;99.90
51567;DHT22;37657;53.182;5.638;2023-02-28T09:48:39;5.50;99.90
51567;DHT22;37657;53.182;5.638;2023-02-28T09:53:50;5.60;99.90
51567;DHT22;37657;53.182;5.638;2023-02-28T09:56:24;5.70;99.90
51567;DHT22;37657;53.182;5.638;2023-02-28T10:01:31;5.80;99.90
51567;DHT22;37657;53.182;5.638;2023-02-28T10:04:14;5.80;99.90
51567;DHT22;37657;53.182;5.638;2023-02-28T10:06:50;5.90;99.90
51567;DHT22;37657;53.182;5.638;2023-02-28T10:09:26;5.70;99.90
51567;DHT22;37657;53.182;5.638;2023-02-28T10:11:54;5.80;99.90
51567;DHT22;37657;53.182;5.638;2023-02-28T10:14:24;5.70;99.90
51567;DHT22;37657;53.182;5.638;2023-02-28T10:17:11;5.90;99.90
51567;DHT22;37657;53.182;5.638;2023-02-28T10:20:07;5.90;99.90
51567;DHT22;37657;53.182;5.638;2023-02-28T10:22:59;6.00;99.90
51567;DHT22;37657;53.182;5.638;2023-02-28T10:25:33;6.00;99.90
51567;DHT22;37657;53.182;5.638;2023-02-28T10:30:33;6.00;99.90
51567;DHT22;37657;53.182;5.638;2023-02-28T10:32:59;6.00;99.90
51567;DHT22;37657;53.182;5.638;2023-02-28T10:35:26;6.10;99.90
51567;DHT22;37657;53.182;5.638;2023-02-28T10:38:00;6.20;99.90
51567;DHT22;37657;53.182;5.638;2023-02-28T10:40:35;6.30;99.90
51567;DHT22;37657;53.182;5.638;2023-02-28T10:45:38;6.60;99.90
51567;DHT22;37657;53.182;5.638;2023-02-28T10:48:26;6.70;99.90
51567;DHT22;37657;53.182;5.638;2023-02-28T10:50:53;6.80;99.90
51567;DHT22;37657;53.182;5.638;2023-02-28T10:58:52;6.90;99.90
51567;DHT22;37657;53.182;5.638;2023-02-28T11:03:51;6.70;99.90
51567;DHT22;37657;53.182;5.638;2023-02-28T11:06:30;6.70;99.90
51567;DHT22;37657;53.182;5.638;2023-02-28T11:08:59;6.80;99.90
51567;DHT22;37657;53.182;5.638;2023-02-28T11:11:27;6.80;99.90
51567;DHT22;37657;53.182;5.638;2023-02-28T11:13:55;6.80;99.90
51567;DHT22;37657;53.182;5.638;2023-02-28T11:16:32;6.90;99.90
51567;DHT22;37657;53.182;5.638;2023-02-28T11:18:58;7.00;99.90
51567;DHT22;37657;53.182;5.638;2023-02-28T11:21:32;7.10;99.90
51567;DHT22;37657;53.182;5.638;2023-02-28T11:24:28;7.30;99.90
51567;DHT22;37657;53.182;5.638;2023-02-28T11:26:55;7.50;99.90
51567;DHT22;37657;53.182;5.638;2023-02-28T11:29:24;7.50;99.90
51567;DHT22;37657;53.182;5.638;2023-02-28T11:32:12;7.50;99.90
51567;DHT22;37657;53.182;5.638;2023-02-28T11:34:39;7.70;99.90
51567;DHT22;37657;53.182;5.638;2023-02-28T11:37:11;7.70;99.90
51567;DHT22;37657;53.182;5.638;2023-02-28T11:39:37;7.80;99.90
51567;DHT22;37657;53.182;5.638;2023-02-28T11:42:16;7.90;99.90
51567;DHT22;37657;53.182;5.638;2023-02-28T11:47:38;8.00;99.90
51567;DHT22;37657;53.182;5.638;2023-02-28T12:00:27;8.20;99.90
51567;DHT22;37657;53.182;5.638;2023-02-28T12:06:00;8.40;99.90
51567;DHT22;37657;53.182;5.638;2023-02-28T12:08:54;8.40;99.90
51567;DHT22;37657;53.182;5.638;2023-02-28T12:11:27;8.30;99.90
51567;DHT22;37657;53.182;5.638;2023-02-28T12:27:16;8.20;99.90
51567;DHT22;37657;53.182;5.638;2023-02-28T12:29:50;8.30;99.90
51567;DHT22;37657;53.182;5.638;2023-02-28T12:32:35;8.30;99.90
51567;DHT22;37657;53.182;5.638;2023-02-28T12:37:39;8.50;99.90
51567;DHT22;37657;53.182;5.638;2023-02-28T12:40:27;8.50;99.90
51567;DHT22;37657;53.182;5.638;2023-02-28T12:43:02;8.60;99.90
51567;DHT22;37657;53.182;5.638;2023-02-28T12:45:40;8.60;99.90
51567;DHT22;37657;53.182;5.638;2023-02-28T12:48:10;8.70;99.90
51567;DHT22;37657;53.182;5.638;2023-02-28T12:50:40;8.70;99.90
51567;DHT22;37657;53.182;5.638;2023-02-28T12:53:41;8.60;99.90
51567;DHT22;37657;53.182;5.638;2023-02-28T12:59:03;8.60;99.90
51567;DHT22;37657;53.182;5.638;2023-02-28T13:01:57;8.70;99.90
51567;DHT22;37657;53.182;5.638;2023-02-28T13:09:55;8.80;99.90
51567;DHT22;37657;53.182;5.638;2023-02-28T13:12:22;8.80;99.90
51567;DHT22;37657;53.182;5.638;2023-02-28T13:14:49;8.80;99.90
51567;DHT22;37657;53.182;5.638;2023-02-28T13:17:19;8.70;99.90
51567;DHT22;37657;53.182;5.638;2023-02-28T13:22:39;8.70;99.90
51567;DHT22;37657;53.182;5.638;2023-02-28T13:28:00;8.80;99.90
51567;DHT22;37657;53.182;5.638;2023-02-28T13:33:27;8.70;99.90
51567;DHT22;37657;53.182;5.638;2023-02-28T13:38:47;8.60;99.90
51567;DHT22;37657;53.182;5.638;2023-02-28T13:46:29;8.60;99.90
51567;DHT22;37657;53.182;5.638;2023-02-28T13:48:55;8.70;99.90
51567;DHT22;37657;53.182;5.638;2023-02-28T13:51:37;8.70;99.90
51567;DHT22;37657;53.182;5.638;2023-02-28T13:54:33;8.70;99.90
51567;DHT22;37657;53.182;5.638;2023-02-28T13:57:10;8.70;99.90
51567;DHT22;37657;53.182;5.638;2023-02-28T14:00:15;8.70;99.90
51567;DHT22;37657;53.182;5.638;2023-02-28T14:05:21;8.50;99.90
51567;DHT22;37657;53.182;5.638;2023-02-28T14:07:56;8.40;99.90
51567;DHT22;37657;53.182;5.638;2023-02-28T14:10:44;8.40;99.90
51567;DHT22;37657;53.182;5.638;2023-02-28T14:13:42;8.40;99.90
51567;DHT22;37657;53.182;5.638;2023-02-28T14:16:20;8.40;99.90
51567;DHT22;37657;53.182;5.638;2023-02-28T14:19:00;8.30;99.90
51567;DHT22;37657;53.182;5.638;2023-02-28T14:21:29;8.30;99.90
51567;DHT22;37657;53.182;5.638;2023-02-28T14:27:04;8.40;99.90
51567;DHT22;37657;53.182;5.638;2023-02-28T14:32:40;8.50;99.90
51567;DHT22;37657;53.182;5.638;2023-02-28T14:38:19;8.60;99.90
51567;DHT22;37657;53.182;5.638;2023-02-28T14:40:47;8.60;99.90
51567;DHT22;37657;53.182;5.638;2023-02-28T14:43:27;8.60;99.90
51567;DHT22;37657;53.182;5.638;2023-02-28T14:45:56;8.60;99.90
51567;DHT22;37657;53.182;5.638;2023-02-28T14:48:23;8.50;99.90
51567;DHT22;37657;53.182;5.638;2023-02-28T14:50:52;8.50;99.90
51567;DHT22;37657;53.182;5.638;2023-02-28T14:53:20;8.40;99.90
51567;DHT22;37657;53.182;5.638;2023-02-28T14:55:48;8.40;99.90
51567;DHT22;37657;53.182;5.638;2023-02-28T14:58:28;8.30;99.90
51567;DHT22;37657;53.182;5.638;2023-02-28T15:01:04;8.20;99.90
51567;DHT22;37657;53.182;5.638;2023-02-28T15:06:13;8.00;99.90
51567;DHT22;37657;53.182;5.638;2023-02-28T15:08:39;8.20;99.90
51567;DHT22;37657;53.182;5.638;2023-02-28T15:13:39;7.50;99.90
51567;DHT22;37657;53.182;5.638;2023-02-28T15:16:10;7.30;99.90
51567;DHT22;37657;53.182;5.638;2023-02-28T15:18:46;7.20;99.90
51567;DHT22;37657;53.182;5.638;2023-02-28T15:21:19;6.90;99.90
51567;DHT22;37657;53.182;5.638;2023-02-28T15:23:55;7.00;99.90
51567;DHT22;37657;53.182;5.638;2023-02-28T15:26:29;6.90;99.90
51567;DHT22;37657;53.182;5.638;2023-02-28T15:29:01;7.00;99.90
51567;DHT22;37657;53.182;5.638;2023-02-28T15:31:29;7.00;99.90
51567;DHT22;37657;53.182;5.638;2023-02-28T15:33:58;6.90;99.90
51567;DHT22;37657;53.182;5.638;2023-02-28T15:36:30;6.90;99.90
51567;DHT22;37657;53.182;5.638;2023-02-28T15:38:57;6.90;99.90
51567;DHT22;37657;53.182;5.638;2023-02-28T15:41:28;6.90;99.90
51567;DHT22;37657;53.182;5.638;2023-02-28T15:47:03;6.80;99.90
51567;DHT22;37657;53.182;5.638;2023-02-28T15:49:38;6.70;99.90
51567;DHT22;37657;53.182;5.638;2023-02-28T15:52:05;6.70;99.90
51567;DHT22;37657;53.182;5.638;2023-02-28T15:54:33;6.60;99.90
51567;DHT22;37657;53.182;5.638;2023-02-28T15:57:15;6.40;99.90
51567;DHT22;37657;53.182;5.638;2023-02-28T15:59:50;6.40;99.90
51567;DHT22;37657;53.182;5.638;2023-02-28T16:02:19;6.40;99.90
51567;DHT22;37657;53.182;5.638;2023-02-28T16:07:46;6.30;99.90
51567;DHT22;37657;53.182;5.638;2023-02-28T16:10:14;6.20;99.90
51567;DHT22;37657;53.182;5.638;2023-02-28T16:12:40;6.20;99.90
51567;DHT22;37657;53.182;5.638;2023-02-28T16:15:14;6.20;99.90
51567;DHT22;37657;53.182;5.638;2023-02-28T16:17:42;6.00;99.90
51567;DHT22;37657;53.182;5.638;2023-02-28T16:20:25;5.90;99.90
51567;DHT22;37657;53.182;5.638;2023-02-28T16:22:51;6.00;99.90
51567;DHT22;37657;53.182;5.638;2023-02-28T16:25:20;5.90;99.90
51567;DHT22;37657;53.182;5.638;2023-02-28T16:27:48;5.90;99.90
51567;DHT22;37657;53.182;5.638;2023-02-28T16:30:26;5.90;99.90
51567;DHT22;37657;53.182;5.638;2023-02-28T16:32:53;5.80;99.90
51567;DHT22;37657;53.182;5.638;2023-02-28T16:35:20;5.70;99.90
51567;DHT22;37657;53.182;5.638;2023-02-28T16:37:45;5.60;99.90
51567;DHT22;37657;53.182;5.638;2023-02-28T16:40:23;5.50;99.90
51567;DHT22;37657;53.182;5.638;2023-02-28T16:42:52;5.50;99.90
51567;DHT22;37657;53.182;5.638;2023-02-28T16:45:22;5.40;99.90
51567;DHT22;37657;53.182;5.638;2023-02-28T16:47:48;5.40;99.90
51567;DHT22;37657;53.182;5.638;2023-02-28T16:50:16;5.40;99.90
51567;DHT22;37657;53.182;5.638;2023-02-28T16:52:42;5.40;99.90
51567;DHT22;37657;53.182;5.638;2023-02-28T16:55:08;5.20;99.90
51567;DHT22;37657;53.182;5.638;2023-02-28T16:57:33;5.20;99.90
51567;DHT22;37657;53.182;5.638;2023-02-28T16:59:59;5.10;99.90
51567;DHT22;37657;53.182;5.638;2023-02-28T17:02:25;5.00;99.90
51567;DHT22;37657;53.182;5.638;2023-02-28T17:04:50;5.00;99.90
51567;DHT22;37657;53.182;5.638;2023-02-28T17:07:16;5.00;99.90
51567;DHT22;37657;53.182;5.638;2023-02-28T17:09:43;4.90;99.90
51567;DHT22;37657;53.182;5.638;2023-02-28T17:12:09;4.90;99.90
51567;DHT22;37657;53.182;5.638;2023-02-28T17:14:35;4.90;99.90
51567;DHT22;37657;53.182;5.638;2023-02-28T17:17:00;4.80;99.90
51567;DHT22;37657;53.182;5.638;2023-02-28T17:19:26;4.70;99.90
51567;DHT22;37657;53.182;5.638;2023-02-28T17:21:53;4.70;99.90
51567;DHT22;37657;53.182;5.638;2023-02-28T17:24:18;4.60;99.90
51567;DHT22;37657;53.182;5.638;2023-02-28T17:26:44;4.60;99.90
51567;DHT22;37657;53.182;5.638;2023-02-28T17:29:16;4.60;99.90
51567;DHT22;37657;53.182;5.638;2023-02-28T17:31:42;4.60;99.90
51567;DHT22;37657;53.182;5.638;2023-02-28T17:34:08;4.50;99.90
51567;DHT22;37657;53.182;5.638;2023-02-28T17:36:34;4.50;99.90
51567;DHT22;37657;53.182;5.638;2023-02-28T17:39:03;4.50;99.90
51567;DHT22;37657;53.182;5.638;2023-02-28T17:41:28;4.40;99.90
51567;DHT22;37657;53.182;5.638;2023-02-28T17:43:56;4.30;99.90
51567;DHT22;37657;53.182;5.638;2023-02-28T17:46:23;4.20;99.90
51567;DHT22;37657;53.182;5.638;2023-02-28T17:48:50;4.10;99.90
51567;DHT22;37657;53.182;5.638;2023-02-28T17:51:17;4.10;99.90
51567;DHT22;37657;53.182;5.638;2023-02-28T17:53:43;4.10;99.90
51567;DHT22;37657;53.182;5.638;2023-02-28T17:56:18;4.10;99.90
51567;DHT22;37657;53.182;5.638;2023-02-28T17:58:44;4.00;99.90
51567;DHT22;37657;53.182;5.638;2023-02-28T18:01:10;4.00;99.90
51567;DHT22;37657;53.182;5.638;2023-02-28T18:03:37;4.00;99.90
51567;DHT22;37657;53.182;5.638;2023-02-28T18:06:04;4.00;99.90